Crow Creek, South Dakota
Current Conditions -  °F | °C
As of 2:15 AM on Saturday 25 Oct 2014 (Local Time) from K9V9 Reporting Station
Clear Clear  
Wind Chill: 53°   Ceiling: Unl
Heat Index: 53°   Visibility: 10mi
Dew Point: 37°   Wind: 6mph
Humidity: 53%   Direction: 10°N
Pressure: 30.09"   Gusts: NA
Location:  44.0664°N, 99.3193°W
Report Text: K9V9 250715Z AUTO 01005KT 10SM CLR 12/03 A3009 RMK AO2 T01190027
Loading
Personal Weather Stations






























Interactive Weather Map
Tropical Storm Tracking
New forecast layout! Learn more

10-Day Weather Forecast

Advertisements
Track Severe Weather on mobile